San Lorenzo de El Escorial, Spain
Current Conditions -  °F | °C
As of 8:30 PM on Tuesday 21 Oct 2014 (Local Time) from LEVS Reporting Station
Clear Clear  
Wind Chill: 72°   Ceiling: Unl
Heat Index: 72°   Visibility: 6mi
Dew Point: 50°   Wind: 9mph
Humidity: 46%   Direction: 280°W
Pressure: 30.36"   Gusts: NA
Location:  40.59°N, 4.15°W
Report Text: LEVS 211830Z 28008KT CAVOK 22/10 Q1028
Loading
Personal Weather Stations






























Interactive Weather Map New forecast layout! Learn more

10-Day Weather Forecast

Advertisements
Track Severe Weather on mobile